Bourton on the Water, United Kingdom
Current Conditions -  °F | °C
As of 7:50 PM on Thursday 27 Nov 2014 (Local Time) from EGVN Reporting Station
Broken Clouds Broken Clouds  
Wind Chill: 46°   Ceiling: 1100
Heat Index: 46°   Visibility: 6mi
Dew Point: 45°   Wind: 2mph
Humidity: 93%   Direction: 100°E
Pressure: 29.56"   Gusts: NA
Location:  51.87°N, 1.75°W
Report Text: EGVN 271950Z 10002KT 9999 BKN011 BKN060 08/07 Q1001 GRN NOSIG
Loading
Personal Weather Stations






























Interactive Weather Map New forecast layout! Learn more

10-Day Weather Forecast

Advertisements
Track Severe Weather on mobile